Time;durP1;ratioP1;P1;durP2;ratioP2;P2;SDS_P1;SDS_P2;PMS_P1;PMS_P2;Temp;Humidity;BMP_temperature;BMP_pressure;BME280_temperature;BME280_humidity;BME280_pressure;Samples;Min_cycle;Max_cycle;Signal;HPM_P1;HPM_P2
2024/04/03 00:00:13;;;;;;;3.30;1.40;;;;;;;9.16;74.15;98548.70;218228;1261;142019;-70
2024/04/03 00:05:38;;;;;;;1.90;1.30;;;;;;;9.14;74.20;98553.37;217510;1257;139021;-72
2024/04/03 00:10:41;;;;;;;1.40;1.30;;;;;;;9.10;74.32;98556.80;218034;1257;140383;-71
2024/04/03 00:15:44;;;;;;;2.20;1.10;;;;;;;9.06;74.07;98563.67;218168;1258;139207;-71
2024/04/03 00:20:47;;;;;;;5.50;1.90;;;;;;;9.02;74.13;98558.36;217842;1259;140834;-72
2024/04/03 00:26:00;;;;;;;2.40;1.40;;;;;;;8.98;74.25;98557.80;217531;1260;140904;-69
2024/04/03 00:31:02;;;;;;;3.30;1.20;;;;;;;8.98;74.38;98554.55;218455;1260;140259;-70
2024/04/03 00:36:05;;;;;;;3.80;1.40;;;;;;;8.99;74.22;98559.20;217578;1261;140489;-71
2024/04/03 00:41:08;;;;;;;2.90;1.40;;;;;;;8.95;74.18;98549.90;217414;1260;139979;-69
2024/04/03 00:46:11;;;;;;;1.50;1.40;;;;;;;8.89;74.07;98551.82;217624;1256;139575;-70
2024/04/03 00:51:15;;;;;;;2.10;1.30;;;;;;;8.83;74.03;98551.62;217454;1257;140410;-71
2024/04/03 00:56:19;;;;;;;2.20;1.00;;;;;;;8.76;74.25;98552.19;217354;1261;139841;-70
2024/04/03 01:01:22;;;;;;;3.10;2.30;;;;;;;8.70;74.04;98552.91;217774;1257;139757;-71
2024/04/03 01:06:25;;;;;;;1.50;1.30;;;;;;;8.63;74.22;98547.04;218025;1259;139416;-70
2024/04/03 01:11:28;;;;;;;1.90;1.70;;;;;;;8.58;74.70;98542.43;217617;1262;140480;-70
2024/04/03 01:16:30;;;;;;;3.20;1.50;;;;;;;8.58;74.76;98538.50;217564;1260;140715;-71
2024/04/03 01:21:33;;;;;;;2.30;1.70;;;;;;;8.60;74.99;98533.79;218280;1256;139477;-72
2024/04/03 01:26:35;;;;;;;1.40;1.30;;;;;;;8.61;74.99;98544.91;218804;1259;140512;-71
2024/04/03 01:31:37;;;;;;;2.00;1.50;;;;;;;8.63;74.79;98542.65;219107;1257;139833;-71
2024/04/03 01:36:40;;;;;;;2.10;1.10;;;;;;;8.67;75.12;98547.04;218656;1257;139552;-72
2024/04/03 01:41:43;;;;;;;1.10;1.00;;;;;;;8.70;75.09;98549.63;217401;1259;139585;-71
2024/04/03 01:46:47;;;;;;;3.30;1.30;;;;;;;8.73;75.11;98548.48;217841;1262;140365;-72
2024/04/03 01:51:49;;;;;;;5.30;0.90;;;;;;;8.74;75.33;98544.36;217768;1257;140667;-71
2024/04/03 01:56:53;;;;;;;2.40;1.20;;;;;;;8.75;75.52;98553.73;217790;1257;140320;-71
2024/04/03 02:01:56;;;;;;;1.40;1.30;;;;;;;8.76;75.55;98552.09;217841;1259;141031;-70
2024/04/03 02:07:00;;;;;;;2.50;1.60;;;;;;;8.78;75.78;98548.12;217971;1261;139801;-70
2024/04/03 02:12:04;;;;;;;2.10;1.90;;;;;;;8.81;75.62;98555.15;217655;1259;139925;-71
2024/04/03 02:17:06;;;;;;;1.50;1.40;;;;;;;8.82;75.78;98556.08;218271;1259;139857;-73
2024/04/03 02:22:10;;;;;;;3.70;2.10;;;;;;;8.85;75.87;98544.94;217685;1259;141948;-71
2024/04/03 02:27:13;;;;;;;1.60;1.30;;;;;;;8.85;75.74;98550.46;217310;1262;139415;-70
2024/04/03 02:32:15;;;;;;;2.90;1.40;;;;;;;8.84;75.87;98548.48;217676;1256;140204;-71
2024/04/03 02:37:19;;;;;;;3.40;2.60;;;;;;;8.83;75.91;98541.52;217678;1258;140259;-70
2024/04/03 02:42:23;;;;;;;1.10;1.00;;;;;;;8.83;76.15;98539.48;217488;1256;139576;-69
2024/04/03 02:47:26;;;;;;;2.50;1.10;;;;;;;8.82;76.06;98535.19;218033;1256;139575;-71
2024/04/03 02:52:28;;;;;;;1.20;0.90;;;;;;;8.78;76.27;98531.85;217601;1256;139857;-70
2024/04/03 02:57:31;;;;;;;1.00;1.00;;;;;;;8.74;76.42;98532.40;217519;1256;140180;-70
2024/04/03 03:02:34;;;;;;;1.50;1.40;;;;;;;8.70;76.58;98535.33;217604;1257;140376;-69
2024/04/03 03:07:37;;;;;;;1.70;1.40;;;;;;;8.67;76.73;98537.53;217365;1257;141146;-71
2024/04/03 03:12:40;;;;;;;1.70;1.50;;;;;;;8.69;76.89;98538.09;217573;1262;140121;-72
2024/04/03 03:17:42;;;;;;;1.20;1.10;;;;;;;8.70;77.09;98530.82;218474;1258;139545;-72
2024/04/03 03:22:44;;;;;;;1.20;1.10;;;;;;;8.72;77.02;98524.98;217594;1260;140735;-71
2024/04/03 03:27:48;;;;;;;2.00;1.80;;;;;;;8.73;77.06;98530.69;217757;1256;141293;-71
2024/04/03 03:32:51;;;;;;;2.20;1.60;;;;;;;8.74;77.00;98531.02;218656;1257;140838;-71
2024/04/03 03:37:54;;;;;;;1.60;1.50;;;;;;;8.75;77.23;98526.30;218131;1259;140053;-71
2024/04/03 03:42:58;;;;;;;4.80;1.50;;;;;;;8.77;77.19;98521.84;218241;1257;139736;-70
2024/04/03 03:48:01;;;;;;;1.00;1.00;;;;;;;8.75;77.06;98524.75;218840;1258;139759;-71
2024/04/03 03:53:03;;;;;;;1.30;1.20;;;;;;;8.74;77.27;98523.27;217240;1262;140732;-70
2024/04/03 03:58:06;;;;;;;1.40;1.30;;;;;;;8.73;77.21;98520.48;217825;1257;140800;-71
2024/04/03 04:03:09;;;;;;;1.90;1.80;;;;;;;8.72;77.27;98511.27;217943;1257;139738;-71
2024/04/03 04:08:12;;;;;;;2.00;1.80;;;;;;;8.72;77.20;98513.30;218030;1259;140248;-73
2024/04/03 04:13:14;;;;;;;3.00;1.90;;;;;;;8.75;77.34;98516.30;217961;1256;140320;-70
2024/04/03 04:18:17;;;;;;;2.40;1.20;;;;;;;8.77;77.47;98505.69;218158;1257;141048;-70
2024/04/03 04:23:20;;;;;;;2.40;1.80;;;;;;;8.76;77.62;98502.02;217730;1257;140043;-71
2024/04/03 04:28:23;;;;;;;4.10;2.80;;;;;;;8.78;77.28;98493.96;217992;1260;140683;-71
2024/04/03 04:33:28;;;;;;;2.60;2.40;;;;;;;8.80;77.68;98492.81;217962;1260;139658;-72
2024/04/03 04:38:30;;;;;;;2.30;2.00;;;;;;;8.82;77.49;98490.92;218410;1257;139790;-71
2024/04/03 04:43:33;;;;;;;3.50;2.10;;;;;;;8.83;77.43;98490.19;217994;1257;140430;-69
2024/04/03 04:48:36;;;;;;;2.30;1.30;;;;;;;8.79;77.56;98493.28;217683;1257;139807;-71
2024/04/03 04:53:38;;;;;;;1.80;1.60;;;;;;;8.76;77.73;98490.06;217965;1259;139599;-71
2024/04/03 04:58:42;;;;;;;2.60;1.50;;;;;;;8.84;77.64;98493.68;217181;1257;631426;-70
2024/04/03 05:03:45;;;;;;;1.80;1.70;;;;;;;8.94;77.76;98492.64;217371;1260;139999;-72
2024/04/03 05:08:48;;;;;;;1.60;1.50;;;;;;;8.96;77.87;98490.01;218475;1256;142671;-70
2024/04/03 05:13:51;;;;;;;1.10;1.10;;;;;;;8.99;77.87;98496.24;218410;1256;140952;-71
2024/04/03 05:18:53;;;;;;;6.50;1.80;;;;;;;8.98;77.65;98497.89;218906;1257;140165;-70
2024/04/03 05:23:56;;;;;;;1.60;1.50;;;;;;;9.01;77.76;98501.36;217557;1260;139861;-70
2024/04/03 05:28:58;;;;;;;1.70;1.60;;;;;;;9.03;77.72;98502.19;218022;1262;139685;-70
2024/04/03 05:34:03;;;;;;;1.40;1.30;;;;;;;9.06;77.72;98508.96;217553;1262;140174;-72
2024/04/03 05:39:08;;;;;;;2.70;1.40;;;;;;;9.11;77.68;98513.20;217849;1257;140090;-75
2024/04/03 05:44:10;;;;;;;1.90;1.60;;;;;;;9.17;77.61;98515.52;217600;1256;139723;-70
2024/04/03 05:49:13;;;;;;;3.80;1.50;;;;;;;9.23;77.69;98520.34;218584;1261;226048;-72
2024/04/03 05:54:16;;;;;;;0.90;0.90;;;;;;;9.26;77.65;98524.73;217374;1262;140033;-71
2024/04/03 05:59:20;;;;;;;1.50;1.20;;;;;;;9.29;77.62;98522.89;217660;1259;139716;-71
2024/04/03 06:04:23;;;;;;;3.20;2.00;;;;;;;9.29;77.42;98525.65;217330;1261;140523;-71
2024/04/03 06:09:25;;;;;;;3.10;2.80;;;;;;;9.30;77.29;98516.67;217118;1261;140010;-71
2024/04/03 06:14:28;;;;;;;2.60;2.30;;;;;;;9.30;77.22;98524.60;217784;1261;139490;-71
2024/04/03 06:19:31;;;;;;;6.10;1.90;;;;;;;9.32;77.23;98524.13;217421;1257;140534;-71
2024/04/03 06:24:33;;;;;;;1.70;1.60;;;;;;;9.33;77.22;98527.66;217672;1261;140572;-70
2024/04/03 06:29:36;;;;;;;4.50;2.30;;;;;;;9.33;77.29;98531.86;217471;1262;140787;-71
2024/04/03 06:34:39;;;;;;;7.00;2.50;;;;;;;9.30;77.13;98538.27;217615;1257;140511;-69
2024/04/03 06:39:41;;;;;;;2.90;2.20;;;;;;;9.32;77.06;98541.89;218244;1262;140879;-70
2024/04/03 06:44:44;;;;;;;7.60;2.00;;;;;;;9.40;77.18;98544.57;218325;1262;140645;-68
2024/04/03 06:49:46;;;;;;;2.30;2.20;;;;;;;9.52;77.01;98542.51;217604;1262;139880;-70
2024/04/03 06:54:49;;;;;;;3.00;1.80;;;;;;;9.59;77.06;98544.15;217073;1263;139455;-72
2024/04/03 06:59:52;;;;;;;4.90;2.20;;;;;;;9.63;76.83;98545.92;218174;1257;140713;-71
2024/04/03 07:04:55;;;;;;;2.60;2.00;;;;;;;9.66;76.74;98549.84;220286;1257;141206;-72
2024/04/03 07:10:00;;;;;;;2.80;2.20;;;;;;;9.65;76.60;98551.05;220167;1257;139840;-70
2024/04/03 07:15:04;;;;;;;3.30;2.10;;;;;;;9.69;76.73;98552.52;220105;1257;140295;-70
2024/04/03 07:20:07;;;;;;;3.00;2.70;;;;;;;9.73;76.76;98554.83;218175;1262;140233;-72
2024/04/03 07:25:11;;;;;;;2.70;1.80;;;;;;;9.78;77.04;98548.20;217683;1257;140367;-70
2024/04/03 07:30:14;;;;;;;4.00;2.30;;;;;;;9.80;77.27;98558.42;217259;1263;140218;-70
2024/04/03 07:35:17;;;;;;;5.90;3.10;;;;;;;9.95;77.41;98558.23;217484;1261;139564;-71
2024/04/03 07:40:20;;;;;;;5.80;2.40;;;;;;;10.27;77.49;98565.46;217265;1263;142260;-71
2024/04/03 07:45:23;;;;;;;5.90;2.90;;;;;;;10.60;76.94;98561.70;217456;1262;141097;-70
2024/04/03 07:50:27;;;;;;;7.10;2.60;;;;;;;10.65;76.33;98563.79;217274;1263;139673;-70
2024/04/03 07:55:30;;;;;;;3.90;3.10;;;;;;;10.57;76.06;98580.60;217388;1260;140522;-76
2024/04/03 08:00:33;;;;;;;4.90;2.30;;;;;;;10.51;75.84;98594.60;217379;1257;140659;-71
2024/04/03 08:05:35;;;;;;;3.50;2.50;;;;;;;10.63;76.07;98585.09;217282;1257;140629;-72
2024/04/03 08:10:39;;;;;;;5.60;2.60;;;;;;;10.79;75.86;98580.48;217383;1261;140418;-71
2024/04/03 08:15:42;;;;;;;4.70;2.00;;;;;;;11.06;75.54;98586.17;217055;1263;246886;-72
2024/04/03 08:20:45;;;;;;;5.70;2.80;;;;;;;11.35;75.42;98582.44;217866;1262;139782;-71
2024/04/03 08:25:48;;;;;;;20.30;4.10;;;;;;;11.33;74.50;98580.10;217770;1258;140467;-72
2024/04/03 08:30:51;;;;;;;8.40;4.10;;;;;;;11.40;75.06;98597.12;217553;1258;139924;-72
2024/04/03 08:36:00;;;;;;;3.40;2.40;;;;;;;11.35;74.58;98597.60;217233;1257;140310;-72
2024/04/03 08:41:04;;;;;;;4.20;2.80;;;;;;;11.23;74.70;98605.29;218696;1258;139618;-70
2024/04/03 08:46:09;;;;;;;3.00;2.80;;;;;;;11.46;74.78;98602.14;217877;1263;139545;-71
2024/04/03 08:51:12;;;;;;;2.60;2.20;;;;;;;11.49;74.62;98614.89;217569;1257;140245;-75
2024/04/03 08:56:17;;;;;;;3.80;2.00;;;;;;;11.28;74.67;98613.92;217885;1260;141616;-70
2024/04/03 09:01:19;;;;;;;4.20;2.10;;;;;;;11.04;74.75;98619.20;217542;1258;139549;-72
2024/04/03 09:06:22;;;;;;;5.30;3.40;;;;;;;10.95;75.20;98622.34;217739;1257;140611;-74
2024/04/03 09:11:25;;;;;;;3.50;3.20;;;;;;;10.89;75.49;98634.95;217346;1261;140056;-74
2024/04/03 09:16:27;;;;;;;6.10;3.40;;;;;;;10.74;75.60;98647.02;217851;1258;140880;-71
2024/04/03 09:21:31;;;;;;;3.90;3.40;;;;;;;10.63;76.46;98648.15;217705;1262;153183;-72
2024/04/03 09:26:42;;;;;;;4.70;2.60;;;;;;;10.77;77.08;98646.54;218513;1257;139642;-71
2024/04/03 09:31:45;;;;;;;6.50;3.20;;;;;;;10.88;77.16;98644.76;217527;1257;140368;-74
2024/04/03 09:36:47;;;;;;;4.10;3.60;;;;;;;11.05;77.21;98651.99;217471;1261;139886;-72
2024/04/03 09:41:52;;;;;;;2.40;2.00;;;;;;;11.44;76.92;98647.98;217533;1257;140825;-71
2024/04/03 09:47:05;;;;;;;2.80;2.60;;;;;;;11.74;76.52;98647.55;217441;1257;139673;-71
2024/04/03 09:52:11;;;;;;;1.70;1.60;;;;;;;12.03;76.03;98650.25;217270;1258;139955;-71
2024/04/03 09:57:14;;;;;;;2.20;2.00;;;;;;;12.44;75.09;98643.39;217018;1262;140011;-72
2024/04/03 10:02:19;;;;;;;2.30;2.10;;;;;;;12.69;74.07;98657.67;218549;1260;140537;-71
2024/04/03 10:07:23;;;;;;;3.20;1.90;;;;;;;12.78;73.23;98656.30;217478;1257;141391;-71
2024/04/03 10:12:27;;;;;;;0.90;0.90;;;;;;;12.75;72.69;98677.69;216965;1257;140383;-72
2024/04/03 10:17:38;;;;;;;2.50;1.00;;;;;;;12.17;71.31;98699.69;217532;1257;140647;-71
2024/04/03 10:22:42;;;;;;;0.60;0.60;;;;;;;11.40;70.80;98728.18;217648;1257;140984;-70
2024/04/03 10:27:46;;;;;;;0.80;0.80;;;;;;;10.80;71.57;98755.37;217745;1258;140315;-70
2024/04/03 10:32:55;;;;;;;0.50;0.50;;;;;;;10.75;72.74;98755.08;217390;1260;139986;-71
2024/04/03 10:37:59;;;;;;;3.50;0.90;;;;;;;10.76;72.87;98767.13;217271;1257;140407;-70
2024/04/03 10:43:02;;;;;;;1.50;1.10;;;;;;;10.43;72.98;98769.39;218684;1256;140414;-70
2024/04/03 10:48:11;;;;;;;1.50;1.30;;;;;;;10.10;73.32;98774.89;216979;1258;140517;-71
2024/04/03 10:53:14;;;;;;;1.10;0.90;;;;;;;9.99;73.89;98777.67;217040;1257;139991;-69
2024/04/03 10:58:20;;;;;;;1.00;1.00;;;;;;;9.85;73.88;98780.69;220025;1256;154853;-71
2024/04/03 11:03:23;;;;;;;2.00;1.90;;;;;;;10.19;75.54;98785.78;217759;1257;140519;-71
2024/04/03 11:08:26;;;;;;;2.20;1.90;;;;;;;10.69;75.81;98784.84;216954;1257;141048;-70
2024/04/03 11:13:29;;;;;;;1.70;1.60;;;;;;;11.43;75.81;98784.60;217256;1257;140299;-71
2024/04/03 11:18:31;;;;;;;2.50;2.10;;;;;;;11.77;74.75;98789.12;217582;1260;142361;-72
2024/04/03 11:23:39;;;;;;;1.60;1.50;;;;;;;11.95;74.16;98800.95;217364;1260;139740;-73
2024/04/03 11:28:42;;;;;;;1.70;1.50;;;;;;;11.88;73.67;98808.19;217173;1260;140178;-72
2024/04/03 11:33:44;;;;;;;5.30;1.80;;;;;;;11.51;73.08;98817.83;217266;1256;140054;-71
2024/04/03 11:38:46;;;;;;;2.50;1.80;;;;;;;11.53;73.24;98822.22;217362;1258;140083;-72
2024/04/03 11:43:58;;;;;;;3.50;1.80;;;;;;;11.68;73.29;98824.80;217918;1259;140126;-74
2024/04/03 11:49:03;;;;;;;2.20;1.70;;;;;;;11.84;73.41;98826.58;217513;1260;140767;-74
2024/04/03 11:54:07;;;;;;;2.10;2.00;;;;;;;11.80;72.75;98829.98;217718;1257;140527;-73
2024/04/03 11:59:12;;;;;;;4.90;2.40;;;;;;;11.85;73.00;98848.64;217226;1259;140702;-72
2024/04/03 12:04:15;;;;;;;1.20;1.10;;;;;;;11.92;72.93;98851.48;217134;1262;139724;-72
2024/04/03 12:09:22;;;;;;;1.70;1.60;;;;;;;12.01;72.81;98846.09;218867;1257;140329;-72
2024/04/03 12:14:29;;;;;;;3.90;2.10;;;;;;;12.08;72.70;98843.43;217753;1262;141700;-73
2024/04/03 12:20:04;;;;;;;4.10;2.60;;;;;;;12.17;72.79;98835.16;217115;1258;140862;-73
2024/04/03 12:25:07;;;;;;;2.90;1.70;;;;;;;12.19;72.60;98838.36;217371;1259;141232;-72
2024/04/03 12:30:12;;;;;;;3.20;2.80;;;;;;;12.20;71.93;98839.45;217083;1258;140620;-74
2024/04/03 12:35:16;;;;;;;1.60;1.50;;;;;;;12.12;71.39;98837.77;217728;1259;140742;-75
2024/04/03 12:40:22;;;;;;;2.40;1.30;;;;;;;12.10;71.00;98844.08;218286;1257;151572;-74
2024/04/03 12:45:25;;;;;;;1.20;1.10;;;;;;;12.08;70.61;98849.36;217598;1258;140050;-73
2024/04/03 12:50:34;;;;;;;2.20;2.10;;;;;;;12.29;70.73;98840.76;220154;1258;140113;-72
2024/04/03 12:55:40;;;;;;;3.10;1.50;;;;;;;12.68;70.39;98844.15;217250;1262;140192;-72
2024/04/03 13:00:42;;;;;;;1.40;1.30;;;;;;;12.84;69.32;98844.77;217414;1257;140087;-73
2024/04/03 13:05:49;;;;;;;1.60;1.50;;;;;;;12.88;68.60;98851.77;217955;1262;139940;-72
2024/04/03 13:10:51;;;;;;;3.30;1.90;;;;;;;13.17;68.47;98850.31;217290;1262;140126;-73
2024/04/03 13:16:01;;;;;;;2.10;1.40;;;;;;;13.01;67.15;98865.65;217355;1259;140332;-76
2024/04/03 13:21:26;;;;;;;7.10;4.40;;;;;;;12.80;66.90;98867.02;217147;1263;139602;-73
2024/04/03 13:26:31;;;;;;;6.60;5.80;;;;;;;12.71;67.11;98883.19;217562;1263;141642;-73
2024/04/03 13:31:40;;;;;;;5.20;4.70;;;;;;;12.58;66.84;98884.79;216935;1259;140199;-73
2024/04/03 13:37:00;;;;;;;2.50;2.30;;;;;;;12.45;66.97;98893.42;217179;1259;141163;-73
2024/04/03 13:42:07;;;;;;;4.60;4.20;;;;;;;12.40;66.47;98899.02;217491;1262;140110;-73
2024/04/03 13:47:11;;;;;;;2.20;2.00;;;;;;;12.41;66.21;98902.39;217302;1259;140096;-76
2024/04/03 13:52:15;;;;;;;1.10;1.10;;;;;;;12.45;65.50;98902.62;216933;1259;140813;-73
2024/04/03 13:57:21;;;;;;;2.30;1.80;;;;;;;12.62;65.18;98903.63;217718;1257;141489;-75
2024/04/03 14:02:27;;;;;;;1.50;1.40;;;;;;;12.96;65.34;98906.16;217747;1257;141287;-74
2024/04/03 14:07:30;;;;;;;3.70;2.40;;;;;;;13.13;64.71;98913.30;217471;1257;141203;-74
2024/04/03 14:12:35;;;;;;;1.80;1.70;;;;;;;13.08;64.32;98927.76;217804;1258;140745;-73
2024/04/03 14:17:38;;;;;;;2.40;2.20;;;;;;;12.98;63.99;98941.04;217757;1257;140448;-72
2024/04/03 14:22:41;;;;;;;1.90;1.70;;;;;;;12.79;63.78;98955.66;217698;1257;139441;-74
2024/04/03 14:27:44;;;;;;;1.40;1.30;;;;;;;12.68;64.02;98962.61;218843;1258;139991;-72
2024/04/03 14:32:48;;;;;;;5.60;3.30;;;;;;;12.68;64.33;98971.05;218806;1257;140130;-71
2024/04/03 14:37:56;;;;;;;2.10;1.50;;;;;;;12.74;64.04;98980.70;218021;1257;139683;-74
2024/04/03 14:43:04;;;;;;;2.60;2.20;;;;;;;12.73;63.72;98983.15;217655;1257;139274;-72
2024/04/03 14:48:06;;;;;;;;;;;;;;;12.78;63.82;98981.77;217987;1259;140505;-73
2024/04/03 14:53:10;;;;;;;1.80;1.50;;;;;;;12.64;63.34;98993.30;217750;1257;125359;-71
2024/04/03 14:58:13;;;;;;;2.30;2.10;;;;;;;12.47;63.12;99001.41;217744;1259;141347;-74
2024/04/03 15:03:15;;;;;;;2.40;1.90;;;;;;;12.33;62.97;99008.05;217432;1259;140131;-73
2024/04/03 15:08:20;;;;;;;2.10;2.00;;;;;;;12.28;63.08;99010.55;217325;1258;139436;-71
2024/04/03 15:13:22;;;;;;;2.10;1.50;;;;;;;12.19;63.02;99018.39;217522;1256;138977;-72
2024/04/03 15:18:25;;;;;;;2.00;1.50;;;;;;;12.11;63.08;99026.70;217368;1257;139692;-72
2024/04/03 15:23:29;;;;;;;1.60;1.50;;;;;;;12.05;63.13;99038.05;217181;1257;139299;-73
2024/04/03 15:28:32;;;;;;;2.80;2.60;;;;;;;11.98;62.87;99042.23;217251;1259;139030;-71
2024/04/03 15:33:34;;;;;;;4.00;1.60;;;;;;;11.84;62.97;99053.51;217474;1257;140815;-71
2024/04/03 15:38:40;;;;;;;2.00;1.90;;;;;;;11.74;63.01;99058.38;217556;1257;140021;-71
2024/04/03 15:43:45;;;;;;;;;;;;;;;11.73;63.13;99064.73;217138;1259;139325;-71
2024/04/03 15:48:49;;;;;;;3.40;2.40;;;;;;;11.58;63.11;99070.89;217847;1256;127948;-71
2024/04/03 15:53:52;;;;;;;2.00;1.60;;;;;;;11.48;63.11;99072.52;217036;1258;139741;-73
2024/04/03 15:58:55;;;;;;;2.60;2.30;;;;;;;11.40;63.04;99079.08;217191;1256;141734;-72
2024/04/03 16:03:59;;;;;;;2.00;1.80;;;;;;;11.26;63.09;99083.57;217204;1259;139106;-71
2024/04/03 16:09:02;;;;;;;1.80;1.70;;;;;;;11.07;63.24;99091.04;217182;1257;139298;-71
2024/04/03 16:14:04;;;;;;;2.10;1.90;;;;;;;10.96;63.48;99098.20;217199;1259;139431;-71
2024/04/03 16:19:07;;;;;;;16.60;3.50;;;;;;;10.92;63.46;99105.25;217244;1259;139793;-71
2024/04/03 16:24:09;;;;;;;3.10;2.40;;;;;;;10.84;63.60;99111.35;217235;1260;140367;-72
2024/04/03 16:29:12;;;;;;;3.40;2.70;;;;;;;10.73;63.94;99112.04;219605;1257;141144;-71
2024/04/03 16:34:14;;;;;;;3.10;2.40;;;;;;;10.59;64.31;99118.40;220235;1257;140194;-71
2024/04/03 16:39:19;;;;;;;4.60;2.90;;;;;;;10.49;64.14;99126.65;217313;1261;141259;-71
2024/04/03 16:44:21;;;;;;;3.40;2.60;;;;;;;10.40;64.20;99128.52;218482;1257;140165;-72
2024/04/03 16:49:24;;;;;;;3.10;1.80;;;;;;;10.29;64.35;99134.93;217364;1258;141112;-71
2024/04/03 16:54:26;;;;;;;3.60;2.20;;;;;;;10.15;64.58;99137.65;217199;1259;139754;-73
2024/04/03 16:59:30;;;;;;;3.70;3.10;;;;;;;9.98;64.58;99148.13;217306;1257;303318;-73
2024/04/03 17:04:32;;;;;;;3.20;2.10;;;;;;;9.81;64.94;99163.36;217025;1261;140252;-72
2024/04/03 17:09:36;;;;;;;3.90;2.40;;;;;;;9.61;64.97;99173.80;217121;1258;140594;-74
2024/04/03 17:14:38;;;;;;;7.90;4.50;;;;;;;9.44;65.17;99183.05;217179;1261;140943;-73
2024/04/03 17:19:40;;;;;;;5.10;3.50;;;;;;;9.29;65.43;99183.98;217046;1259;140808;-74
2024/04/03 17:24:44;;;;;;;4.40;2.60;;;;;;;9.14;65.53;99191.73;217020;1258;141211;-72
2024/04/03 17:29:48;;;;;;;6.20;3.60;;;;;;;8.98;65.67;99195.33;217408;1260;141974;-72
2024/04/03 17:34:54;;;;;;;5.00;3.20;;;;;;;8.86;65.96;99205.73;217665;1262;141233;-72
2024/04/03 17:39:58;;;;;;;4.50;3.40;;;;;;;8.72;66.47;99213.22;217498;1259;139217;-73
2024/04/03 17:45:02;;;;;;;5.20;3.20;;;;;;;8.53;66.76;99217.97;217468;1259;140490;-71
2024/04/03 17:50:05;;;;;;;5.70;4.10;;;;;;;8.39;67.49;99228.29;218175;1259;140056;-71
2024/04/03 17:55:08;;;;;;;6.60;3.60;;;;;;;8.26;67.46;99234.14;217445;1258;139103;-72
2024/04/03 18:00:11;;;;;;;5.90;3.40;;;;;;;8.09;67.38;99245.02;217061;1259;140579;-71
2024/04/03 18:05:15;;;;;;;7.80;3.80;;;;;;;7.85;67.72;99254.27;217927;1258;139987;-71
2024/04/03 18:10:18;;;;;;;6.30;4.10;;;;;;;7.70;68.11;99261.63;217178;1261;141234;-68
2024/04/03 18:15:22;;;;;;;9.30;4.60;;;;;;;7.59;68.67;99273.20;217371;1258;140174;-70
2024/04/03 18:20:26;;;;;;;7.40;4.50;;;;;;;7.49;68.92;99280.31;217819;1259;141510;-70
2024/04/03 18:25:28;;;;;;;5.70;4.10;;;;;;;7.39;69.32;99282.59;217264;1262;139704;-72
2024/04/03 18:30:31;;;;;;;7.90;3.90;;;;;;;7.32;69.15;99287.23;217188;1257;139958;-70
2024/04/03 18:35:33;;;;;;;7.30;5.20;;;;;;;7.25;69.75;99293.30;217621;1257;139246;-70
2024/04/03 18:40:35;;;;;;;13.60;5.30;;;;;;;7.12;70.14;99300.94;217277;1257;140855;-70
2024/04/03 18:45:39;;;;;;;8.50;5.30;;;;;;;7.03;70.33;99307.58;217272;1261;140517;-69
2024/04/03 18:50:43;;;;;;;12.10;6.20;;;;;;;6.95;70.78;99307.56;217670;1258;140180;-71
2024/04/03 18:55:45;;;;;;;8.80;4.20;;;;;;;6.90;71.06;99314.54;218049;1258;140593;-72
2024/04/03 19:00:48;;;;;;;8.00;4.80;;;;;;;6.85;71.14;99317.85;217272;1259;140255;-70
2024/04/03 19:05:51;;;;;;;8.70;4.30;;;;;;;6.82;71.49;99327.96;217554;1259;139559;-71
2024/04/03 19:10:59;;;;;;;5.90;3.60;;;;;;;6.82;71.76;99324.98;217683;1257;140063;-70
2024/04/03 19:16:08;;;;;;;47.10;14.10;;;;;;;6.78;71.71;99334.83;217616;1258;139758;-70
2024/04/03 19:21:14;;;;;;;43.40;17.80;;;;;;;6.82;72.55;99339.81;218003;1261;140325;-69
2024/04/03 19:26:17;;;;;;;16.10;7.70;;;;;;;6.86;72.39;99343.02;217335;1262;142447;-69
2024/04/03 19:31:21;;;;;;;23.30;12.40;;;;;;;6.92;71.90;99339.80;217311;1261;139810;-71
2024/04/03 19:36:24;;;;;;;17.20;7.60;;;;;;;6.92;73.01;99340.45;217246;1259;141005;-69
2024/04/03 19:41:26;;;;;;;15.80;8.30;;;;;;;6.92;72.69;99348.28;217359;1259;140720;-69
2024/04/03 19:46:29;;;;;;;34.60;15.40;;;;;;;6.95;72.56;99356.03;218774;1258;141565;-69
2024/04/03 19:51:32;;;;;;;15.20;7.60;;;;;;;6.96;72.25;99353.87;217584;1259;140004;-70
2024/04/03 19:56:37;;;;;;;12.60;7.90;;;;;;;6.97;72.14;99354.27;217484;1258;139981;-70
2024/04/03 20:01:41;;;;;;;8.60;5.70;;;;;;;6.98;72.31;99358.29;217420;1258;140340;-70
2024/04/03 20:06:45;;;;;;;29.60;11.90;;;;;;;6.96;72.06;99359.11;217475;1257;140345;-69
2024/04/03 20:11:48;;;;;;;32.20;11.40;;;;;;;6.94;71.57;99356.04;218367;1257;140582;-71
2024/04/03 20:16:51;;;;;;;46.30;21.00;;;;;;;6.94;71.69;99355.88;217958;1256;140375;-69
2024/04/03 20:21:55;;;;;;;21.50;12.90;;;;;;;6.94;72.23;99358.36;218016;1261;141227;-69
2024/04/03 20:26:58;;;;;;;14.00;8.10;;;;;;;6.92;72.30;99360.34;217431;1260;140507;-70
2024/04/03 20:32:02;;;;;;;19.00;10.80;;;;;;;6.91;72.04;99365.27;217312;1259;139792;-69
2024/04/03 20:37:10;;;;;;;24.70;10.90;;;;;;;6.89;72.35;99370.31;217252;1262;139550;-71
2024/04/03 20:42:13;;;;;;;20.30;11.60;;;;;;;6.86;72.61;99377.31;217512;1257;141407;-69
2024/04/03 20:47:15;;;;;;;12.70;7.80;;;;;;;6.81;72.31;99384.13;219161;1258;140217;-69
2024/04/03 20:52:19;;;;;;;7.50;5.60;;;;;;;6.74;72.89;99379.99;217615;1260;139798;-70
2024/04/03 20:57:23;;;;;;;11.00;7.60;;;;;;;6.69;72.77;99383.60;217312;1258;140723;-70
2024/04/03 21:02:26;;;;;;;13.10;7.90;;;;;;;6.69;73.06;99379.57;217485;1259;139593;-73
2024/04/03 21:07:29;;;;;;;14.30;9.60;;;;;;;6.66;73.35;99381.48;217295;1262;140460;-70
2024/04/03 21:12:32;;;;;;;13.70;8.70;;;;;;;6.65;73.60;99381.81;217842;1262;141286;-72
2024/04/03 21:17:35;;;;;;;28.00;14.20;;;;;;;6.60;73.80;99385.46;217389;1256;140549;-68
2024/04/03 21:22:39;;;;;;;30.70;15.50;;;;;;;6.60;74.21;99390.23;217282;1261;139633;-71
2024/04/03 21:27:41;;;;;;;21.60;13.90;;;;;;;6.56;74.25;99392.76;218597;1257;139999;-70
2024/04/03 21:32:43;;;;;;;24.50;12.20;;;;;;;6.52;74.72;99396.90;217498;1257;139724;-69
2024/04/03 21:37:45;;;;;;;13.70;8.50;;;;;;;6.49;74.61;99404.66;217661;1259;140995;-69
2024/04/03 21:42:48;;;;;;;20.70;8.20;;;;;;;6.44;75.30;99408.13;217371;1259;139840;-71
2024/04/03 21:47:51;;;;;;;10.90;6.60;;;;;;;6.34;75.51;99412.83;217645;1262;139263;-70
2024/04/03 21:52:53;;;;;;;12.20;6.30;;;;;;;6.22;75.62;99414.84;217201;1258;140712;-68
2024/04/03 21:57:56;;;;;;;10.60;7.80;;;;;;;6.13;75.63;99417.48;217273;1259;140201;-68
2024/04/03 22:02:58;;;;;;;17.00;8.70;;;;;;;6.03;75.73;99414.81;217890;1259;140126;-69
2024/04/03 22:08:03;;;;;;;16.90;8.00;;;;;;;6.02;76.53;99414.78;218667;1258;140510;-68
2024/04/03 22:13:05;;;;;;;17.40;10.70;;;;;;;6.00;76.74;99413.16;217561;1260;140348;-69
2024/04/03 22:18:07;;;;;;;16.80;9.20;;;;;;;6.04;77.08;99417.62;218617;1259;141306;-69
2024/04/03 22:23:10;;;;;;;12.40;8.00;;;;;;;6.06;77.22;99420.27;218008;1259;140381;-68
2024/04/03 22:28:12;;;;;;;7.20;5.70;;;;;;;6.06;77.48;99418.06;217300;1259;140512;-69
2024/04/03 22:33:15;;;;;;;9.30;5.60;;;;;;;6.04;77.21;99416.93;217261;1258;139974;-69
2024/04/03 22:38:19;;;;;;;9.00;6.70;;;;;;;6.00;77.35;99413.16;219081;1262;140579;-70
2024/04/03 22:43:22;;;;;;;17.60;10.60;;;;;;;5.98;77.60;99418.96;218942;1260;141886;-69
2024/04/03 22:48:26;;;;;;;20.70;12.30;;;;;;;6.01;77.94;99414.88;217220;1262;139879;-67
2024/04/03 22:53:29;;;;;;;25.50;13.30;;;;;;;6.01;78.29;99411.28;217902;1259;141642;-70
2024/04/03 22:58:32;;;;;;;20.30;12.00;;;;;;;6.01;78.17;99409.48;217324;1260;140719;-69
2024/04/03 23:03:35;;;;;;;24.10;13.20;;;;;;;5.99;78.05;99409.10;217447;1262;140836;-69
2024/04/03 23:08:38;;;;;;;22.30;14.70;;;;;;;5.99;78.11;99411.87;217383;1262;142689;-69
2024/04/03 23:13:41;;;;;;;20.70;10.80;;;;;;;5.99;78.14;99412.44;217293;1262;140745;-68
2024/04/03 23:18:44;;;;;;;11.90;8.80;;;;;;;5.94;78.07;99412.50;217444;1257;140171;-71